Time;durP1;ratioP1;P1;durP2;ratioP2;P2;SDS_P1;SDS_P2;PMS_P1;PMS_P2;Temp;Humidity;BMP_temperature;BMP_pressure;BME280_temperature;BME280_humidity;BME280_pressure;Samples;Min_cycle;Max_cycle;Signal;HPM_P1;HPM_P2
2022/10/25 00:02:18;;;;;;;24.92;3.38;;;16.40;99.90;;;;;;4956258;29;20253;-63
2022/10/25 00:04:44;;;;;;;21.08;3.70;;;16.00;99.90;;;;;;4956094;29;20505;-63
2022/10/25 00:07:09;;;;;;;26.05;5.25;;;14.80;99.90;;;;;;4956135;28;20501;-63
2022/10/25 00:09:35;;;;;;;16.25;3.38;;;14.80;99.90;;;;;;4956484;29;20043;-63
2022/10/25 00:12:01;;;;;;;22.67;3.80;;;14.90;99.90;;;;;;4955981;29;20058;-64
2022/10/25 00:14:26;;;;;;;20.70;3.60;;;15.60;99.90;;;;;;4955845;29;20118;-63
2022/10/25 00:16:52;;;;;;;16.05;4.10;;;14.90;99.90;;;;;;4954436;29;20545;-63
2022/10/25 00:19:17;;;;;;;21.95;3.88;;;14.80;99.90;;;;;;4955273;28;20135;-63
2022/10/25 00:21:43;;;;;;;23.80;4.18;;;15.80;99.90;;;;;;4957988;28;20034;-63
2022/10/25 00:24:11;;;;;;;16.92;3.58;;;14.70;99.90;;;;;;4975055;28;20125;-63
2022/10/25 00:26:40;;;;;;;14.43;3.33;;;16.50;99.90;;;;;;4972465;28;20054;-63
2022/10/25 00:29:09;;;;;;;20.83;4.03;;;15.10;99.90;;;;;;4957393;28;20046;-64
2022/10/25 00:31:36;;;;;;;17.88;4.32;;;16.00;99.90;;;;;;4957561;28;20333;-63
2022/10/25 00:34:02;;;;;;;18.80;3.53;;;15.50;99.90;;;;;;4974974;28;20378;-63
2022/10/25 00:36:27;;;;;;;19.50;4.13;;;15.20;99.90;;;;;;4957993;28;20065;-63
2022/10/25 00:38:56;;;;;;;19.67;3.70;;;16.00;99.90;;;;;;4974761;28;20046;-64
2022/10/25 00:41:24;;;;;;;14.05;4.20;;;14.90;99.90;;;;;;4974846;28;20093;-64
2022/10/25 00:43:53;;;;;;;17.25;4.85;;;14.70;99.90;;;;;;4946532;29;20150;-63
2022/10/25 00:46:19;;;;;;;19.95;5.35;;;14.70;99.90;;;;;;4961389;28;20068;-63
2022/10/25 00:48:54;;;;;;;16.35;5.45;;;14.60;99.90;;;;;;4974028;28;20125;-64
2022/10/25 00:51:27;;;;;;;20.95;5.85;;;16.00;99.90;;;;;;4974891;28;20069;-63
2022/10/25 00:53:53;;;;;;;19.42;5.38;;;14.50;99.90;;;;;;4957073;28;20046;-63
2022/10/25 00:56:24;;;;;;;17.45;5.30;;;16.20;99.90;;;;;;4974649;28;20034;-63
2022/10/25 00:58:52;;;;;;;16.13;4.68;;;15.20;99.90;;;;;;4974707;28;20105;-64
2022/10/25 01:01:18;;;;;;;15.27;4.93;;;16.20;99.90;;;;;;4974653;28;20039;-63
2022/10/25 01:03:46;;;;;;;16.08;4.97;;;14.30;99.90;;;;;;4974423;28;20117;-63
2022/10/25 01:06:19;;;;;;;17.27;5.18;;;16.20;99.90;;;;;;4973764;28;20114;-63
2022/10/25 01:08:47;;;;;;;18.23;4.93;;;14.20;99.90;;;;;;4974124;28;20444;-63
2022/10/25 01:11:12;;;;;;;22.83;6.20;;;14.30;99.90;;;;;;4974248;28;20051;-63
2022/10/25 01:13:38;;;;;;;25.90;6.28;;;15.80;99.90;;;;;;4974261;28;20122;-63
2022/10/25 01:16:16;;;;;;;27.83;6.95;;;14.50;99.90;;;;;;4974068;28;20481;-63
2022/10/25 01:19:00;;;;;;;29.92;8.00;;;16.00;99.90;;;;;;4974196;28;20046;-63
2022/10/25 01:21:38;;;;;;;23.80;5.80;;;15.40;99.90;;;;;;4973944;28;20042;-63
2022/10/25 01:24:27;;;;;;;18.38;5.15;;;15.20;99.90;;;;;;4956686;28;20047;-64
2022/10/25 01:27:21;;;;;;;24.67;6.28;;;15.20;99.90;;;;;;4937582;29;20524;-63
2022/10/25 01:29:49;;;;;;;23.55;6.28;;;14.50;99.90;;;;;;4954847;29;20046;-63
2022/10/25 01:32:21;;;;;;;19.73;4.95;;;14.20;99.90;;;;;;4954634;29;20039;-63
2022/10/25 01:34:55;;;;;;;20.63;5.10;;;14.10;99.90;;;;;;4955963;28;20047;-63
2022/10/25 01:37:29;;;;;;;20.75;5.35;;;15.60;99.90;;;;;;4954464;29;20047;-63
2022/10/25 01:40:11;;;;;;;21.45;5.40;;;15.80;99.90;;;;;;4937151;29;20043;-63
2022/10/25 01:42:42;;;;;;;22.33;5.65;;;16.10;99.90;;;;;;4954598;29;20078;-65
2022/10/25 01:45:14;;;;;;;29.98;5.40;;;15.80;99.90;;;;;;4954420;29;20161;-63
2022/10/25 01:47:51;;;;;;;20.65;4.20;;;15.90;99.90;;;;;;4970683;28;20042;-63
2022/10/25 01:50:24;;;;;;;17.40;4.18;;;14.60;99.90;;;;;;4973495;28;20046;-63
2022/10/25 01:52:50;;;;;;;23.50;4.70;;;16.10;99.90;;;;;;4973571;28;20576;-63
2022/10/25 01:55:18;;;;;;;23.25;5.15;;;14.70;99.90;;;;;;4972026;28;20110;-63
2022/10/25 01:58:22;;;;;;;30.17;5.03;;;16.00;99.90;;;;;;4973347;28;20042;-63
2022/10/25 02:01:17;;;;;;;26.80;3.83;;;14.70;99.90;;;;;;4972335;28;20043;-64
2022/10/25 02:04:07;;;;;;;33.85;4.10;;;14.60;99.90;;;;;;4970808;28;20053;-63
2022/10/25 02:06:51;;;;;;;32.47;4.30;;;15.00;99.90;;;;;;4953141;29;20158;-64
2022/10/25 02:09:49;;;;;;;32.40;4.03;;;14.50;99.90;;;;;;4953852;29;20043;-62
2022/10/25 02:12:23;;;;;;;33.80;4.95;;;16.30;99.90;;;;;;4920765;29;20457;-63
2022/10/25 02:15:04;;;;;;;42.33;4.72;;;14.30;99.90;;;;;;4936642;29;20035;-63
2022/10/25 02:17:32;;;;;;;34.63;4.72;;;14.60;99.90;;;;;;4953349;29;20051;-63
2022/10/25 02:20:00;;;;;;;38.55;4.53;;;14.20;99.90;;;;;;4971691;28;20089;-63
2022/10/25 02:22:28;;;;;;;35.55;4.50;;;14.20;99.90;;;;;;4973143;28;20045;-63
2022/10/25 02:24:56;;;;;;;31.52;4.40;;;16.10;99.90;;;;;;4972618;28;20050;-64
2022/10/25 02:27:23;;;;;;;23.52;3.78;;;15.80;99.90;;;;;;4973017;28;20046;-63
2022/10/25 02:29:51;;;;;;;31.25;4.13;;;15.60;99.90;;;;;;4972741;28;20035;-63
2022/10/25 02:32:16;;;;;;;26.92;4.18;;;15.80;99.90;;;;;;4972720;28;20496;-63
2022/10/25 02:34:46;;;;;;;40.55;4.68;;;14.30;99.90;;;;;;4973051;28;20050;-63
2022/10/25 02:37:11;;;;;;;25.45;4.18;;;15.40;99.90;;;;;;4972749;28;20046;-63
2022/10/25 02:39:37;;;;;;;28.80;3.90;;;15.50;99.90;;;;;;4972475;28;20038;-63
2022/10/25 02:42:04;;;;;;;31.23;4.35;;;14.10;99.90;;;;;;4955174;28;20118;-63
2022/10/25 02:44:30;;;;;;;31.45;4.00;;;15.40;99.90;;;;;;4954998;28;20074;-64
2022/10/25 02:46:55;;;;;;;34.10;4.03;;;15.90;99.90;;;;;;4954280;28;20042;-65
2022/10/25 02:49:21;;;;;;;28.85;4.15;;;14.50;99.90;;;;;;4972639;28;20054;-63
2022/10/25 02:51:46;;;;;;;28.70;3.60;;;14.20;99.90;;;;;;4972542;28;20081;-63
2022/10/25 02:54:12;;;;;;;24.25;3.60;;;14.30;99.90;;;;;;4972298;28;20543;-62
2022/10/25 02:56:38;;;;;;;26.02;3.67;;;15.60;99.90;;;;;;4972489;28;20038;-62
2022/10/25 02:59:03;;;;;;;20.73;3.55;;;15.60;99.90;;;;;;4972228;28;20039;-63
2022/10/25 03:01:29;;;;;;;21.52;3.97;;;15.30;99.90;;;;;;4972193;28;20039;-63
2022/10/25 03:03:54;;;;;;;15.95;3.15;;;13.70;99.90;;;;;;4954859;28;20062;-63
2022/10/25 03:06:20;;;;;;;24.02;3.42;;;15.10;99.90;;;;;;4972318;28;20085;-63
2022/10/25 03:08:46;;;;;;;17.48;2.65;;;14.60;99.90;;;;;;4954754;28;20457;-63
2022/10/25 03:11:13;;;;;;;21.05;3.80;;;15.40;99.90;;;;;;4971807;28;20042;-63
2022/10/25 03:13:39;;;;;;;19.20;3.13;;;14.10;99.90;;;;;;4972028;28;20058;-63
2022/10/25 03:16:05;;;;;;;21.83;3.30;;;16.00;99.90;;;;;;4946797;28;20054;-63
2022/10/25 03:18:30;;;;;;;25.73;4.10;;;14.70;99.90;;;;;;4953004;29;20043;-63
2022/10/25 03:20:58;;;;;;;19.42;3.30;;;15.80;99.90;;;;;;4949531;28;20452;-62
2022/10/25 03:23:24;;;;;;;17.55;3.38;;;15.20;99.90;;;;;;4972185;28;20046;-63
2022/10/25 03:25:51;;;;;;;18.65;3.45;;;14.50;99.90;;;;;;4971999;28;20493;-63
2022/10/25 03:28:17;;;;;;;21.55;3.72;;;14.40;99.90;;;;;;4971972;28;20101;-63
2022/10/25 03:30:42;;;;;;;17.52;2.75;;;15.60;99.90;;;;;;4972002;28;20086;-63
2022/10/25 03:33:08;;;;;;;30.65;3.47;;;15.40;99.90;;;;;;4972173;28;20046;-64
2022/10/25 03:35:34;;;;;;;26.42;3.42;;;14.40;99.90;;;;;;4972144;28;20113;-63
2022/10/25 03:37:59;;;;;;;18.08;3.30;;;16.00;99.90;;;;;;4971873;28;20123;-63
2022/10/25 03:40:25;;;;;;;25.42;3.80;;;14.20;99.90;;;;;;4972316;28;20428;-63
2022/10/25 03:42:51;;;;;;;22.23;3.40;;;14.70;99.90;;;;;;4971809;28;20043;-63
2022/10/25 03:45:16;;;;;;;23.08;3.67;;;15.80;99.90;;;;;;4971696;28;20043;-62
2022/10/25 03:47:42;;;;;;;24.70;3.63;;;15.40;99.90;;;;;;4971080;28;20043;-63
2022/10/25 03:50:08;;;;;;;30.80;3.80;;;14.30;99.90;;;;;;4969428;28;20039;-64
2022/10/25 03:52:34;;;;;;;17.73;3.15;;;14.90;99.90;;;;;;4952665;28;20074;-63
2022/10/25 03:54:59;;;;;;;12.90;3.15;;;15.50;99.90;;;;;;4952576;28;20066;-63
2022/10/25 03:57:25;;;;;;;17.63;3.55;;;14.40;99.90;;;;;;4952579;29;20047;-63
2022/10/25 03:59:51;;;;;;;27.35;3.38;;;14.40;99.90;;;;;;4952326;28;20101;-63
2022/10/25 04:02:17;;;;;;;21.45;3.45;;;16.20;99.90;;;;;;4952719;29;20051;-63
2022/10/25 04:04:42;;;;;;;23.98;3.28;;;15.50;99.90;;;;;;4952675;29;20048;-63
2022/10/25 04:07:08;;;;;;;19.92;3.75;;;15.50;99.90;;;;;;4952449;29;20061;-63
2022/10/25 04:09:33;;;;;;;22.08;3.45;;;14.50;99.90;;;;;;4952250;29;20123;-63
2022/10/25 04:11:59;;;;;;;20.48;3.38;;;15.80;99.90;;;;;;4952310;29;20062;-63
2022/10/25 04:14:24;;;;;;;23.17;3.10;;;14.50;99.90;;;;;;4952191;29;20043;-62
2022/10/25 04:16:50;;;;;;;24.90;2.85;;;16.10;99.90;;;;;;4967960;28;20063;-62
2022/10/25 04:19:15;;;;;;;21.83;3.22;;;14.50;99.90;;;;;;4971416;28;20046;-64
2022/10/25 04:21:41;;;;;;;23.48;3.78;;;15.40;99.90;;;;;;4954725;28;20146;-63
2022/10/25 04:24:07;;;;;;;25.27;4.13;;;14.40;99.90;;;;;;4956242;28;20600;-64
2022/10/25 04:26:35;;;;;;;20.15;3.53;;;14.00;99.90;;;;;;4957696;28;20047;-63
2022/10/25 04:29:02;;;;;;;21.63;3.45;;;15.10;99.90;;;;;;4974942;28;20050;-63
2022/10/25 04:31:28;;;;;;;27.42;4.28;;;14.20;99.90;;;;;;4957491;28;20034;-64
2022/10/25 04:33:54;;;;;;;16.17;3.45;;;14.70;99.90;;;;;;4974907;28;20042;-63
2022/10/25 04:36:21;;;;;;;19.30;3.28;;;15.80;99.90;;;;;;4974866;28;20117;-63
2022/10/25 04:38:51;;;;;;;26.00;3.22;;;14.40;99.90;;;;;;4974831;28;20034;-63
2022/10/25 04:41:17;;;;;;;29.80;3.70;;;15.10;99.90;;;;;;4974885;28;20573;-63
2022/10/25 04:43:43;;;;;;;18.83;3.63;;;15.20;99.90;;;;;;4974502;28;20125;-63
2022/10/25 04:46:09;;;;;;;22.42;4.10;;;14.90;99.90;;;;;;4974189;28;20038;-63
2022/10/25 04:48:39;;;;;;;16.85;3.42;;;14.30;99.90;;;;;;4974711;28;20073;-64
2022/10/25 04:51:05;;;;;;;14.38;2.95;;;15.70;99.90;;;;;;4974755;28;20058;-62
2022/10/25 04:53:31;;;;;;;24.10;3.30;;;15.50;99.90;;;;;;4974470;28;20043;-64
2022/10/25 04:55:59;;;;;;;26.38;3.67;;;15.30;99.90;;;;;;4974637;28;20089;-63
2022/10/25 04:58:25;;;;;;;21.13;3.70;;;14.20;99.90;;;;;;4974178;28;20401;-63
2022/10/25 05:00:52;;;;;;;16.70;3.03;;;14.20;99.90;;;;;;4973674;28;20109;-63
2022/10/25 05:03:17;;;;;;;14.60;3.10;;;14.40;99.90;;;;;;4961461;28;20053;-63
2022/10/25 05:05:43;;;;;;;17.67;3.33;;;16.00;99.90;;;;;;4959989;28;20047;-63
2022/10/25 05:08:09;;;;;;;21.65;3.83;;;14.90;99.90;;;;;;4954880;29;20047;-63
2022/10/25 05:10:34;;;;;;;21.10;4.15;;;14.80;99.90;;;;;;4954936;29;20079;-63
2022/10/25 05:13:01;;;;;;;27.58;3.58;;;15.70;99.90;;;;;;4954744;29;20043;-63
2022/10/25 05:15:27;;;;;;;14.52;3.00;;;15.70;99.90;;;;;;4938355;28;20053;-63
2022/10/25 05:17:59;;;;;;;24.77;3.20;;;14.50;99.90;;;;;;4965490;28;20078;-63
2022/10/25 05:20:25;;;;;;;16.17;2.90;;;14.00;99.90;;;;;;4971774;28;20050;-63
2022/10/25 05:22:51;;;;;;;14.48;3.28;;;14.90;99.90;;;;;;4945281;28;20069;-63
2022/10/25 05:25:16;;;;;;;12.60;3.13;;;13.90;99.90;;;;;;4962314;28;20039;-63
2022/10/25 05:27:42;;;;;;;17.60;3.42;;;14.70;99.90;;;;;;4960079;28;20057;-64
2022/10/25 05:30:08;;;;;;;14.02;3.10;;;14.20;99.90;;;;;;4959193;28;20042;-63
2022/10/25 05:32:34;;;;;;;20.48;4.22;;;14.10;99.90;;;;;;4962490;28;20039;-63
2022/10/25 05:34:59;;;;;;;13.98;3.05;;;14.40;99.90;;;;;;4962799;28;20081;-63
2022/10/25 05:37:25;;;;;;;19.52;3.50;;;14.90;99.90;;;;;;4946048;28;20051;-63
2022/10/25 05:39:50;;;;;;;21.88;3.90;;;15.40;99.90;;;;;;4960542;28;20465;-63
2022/10/25 05:42:16;;;;;;;18.60;3.30;;;14.90;99.90;;;;;;4958116;28;20046;-64
2022/10/25 05:44:42;;;;;;;13.82;3.30;;;15.90;99.90;;;;;;4954086;29;20043;-63
2022/10/25 05:47:07;;;;;;;18.90;3.67;;;15.70;99.90;;;;;;4958823;28;20093;-63
2022/10/25 05:49:38;;;;;;;20.80;3.63;;;15.60;99.90;;;;;;4962503;28;20125;-62
2022/10/25 05:52:04;;;;;;;22.17;3.70;;;14.90;99.90;;;;;;4973437;28;20054;-64
2022/10/25 05:54:30;;;;;;;18.15;3.78;;;15.60;99.90;;;;;;4973236;28;20053;-64
2022/10/25 05:56:55;;;;;;;16.35;3.75;;;14.00;99.90;;;;;;4950486;29;20399;-63
2022/10/25 05:59:21;;;;;;;25.58;3.97;;;15.50;99.90;;;;;;4954821;28;20349;-63
2022/10/25 06:01:46;;;;;;;11.98;3.80;;;14.40;99.90;;;;;;4954631;28;20421;-63
2022/10/25 06:04:13;;;;;;;17.08;3.35;;;15.90;99.90;;;;;;4953994;28;20047;-63
2022/10/25 06:06:39;;;;;;;17.75;4.10;;;14.30;99.90;;;;;;4969989;28;20110;-63
2022/10/25 06:09:06;;;;;;;22.83;3.85;;;15.90;99.90;;;;;;4965651;28;20378;-63
2022/10/25 06:11:32;;;;;;;14.85;3.53;;;14.40;99.90;;;;;;4959987;28;20042;-64
2022/10/25 06:13:58;;;;;;;12.77;3.70;;;14.50;99.90;;;;;;4972839;28;20071;-64
2022/10/25 06:16:24;;;;;;;20.35;3.95;;;15.80;99.90;;;;;;4968555;28;20078;-63
2022/10/25 06:18:51;;;;;;;17.67;4.25;;;15.00;99.90;;;;;;4969838;28;20066;-62
2022/10/25 06:21:19;;;;;;;24.33;5.22;;;15.60;99.90;;;;;;4970649;28;20055;-63
2022/10/25 06:23:45;;;;;;;20.58;4.25;;;15.40;99.90;;;;;;4971696;28;20039;-64
2022/10/25 06:26:13;;;;;;;17.73;3.90;;;14.20;99.90;;;;;;4973257;28;20051;-63
2022/10/25 06:28:40;;;;;;;16.63;3.72;;;15.20;99.90;;;;;;4972133;28;20098;-63
2022/10/25 06:31:14;;;;;;;27.75;4.38;;;14.00;99.90;;;;;;4956531;28;20049;-63
2022/10/25 06:33:40;;;;;;;26.45;5.07;;;14.20;99.90;;;;;;4953687;28;20043;-63
2022/10/25 06:36:15;;;;;;;27.58;4.60;;;14.20;99.90;;;;;;4936824;29;20047;-63
2022/10/25 06:38:42;;;;;;;26.58;4.90;;;14.50;99.90;;;;;;4963651;28;20516;-64
2022/10/25 06:41:17;;;;;;;20.67;4.32;;;14.60;99.90;;;;;;4969213;28;20126;-63
2022/10/25 06:43:42;;;;;;;24.42;4.78;;;14.40;99.90;;;;;;4965644;28;20046;-62
2022/10/25 06:46:25;;;;;;;21.73;4.15;;;15.70;99.90;;;;;;4951685;28;20094;-64
2022/10/25 06:48:52;;;;;;;27.25;4.43;;;15.50;99.90;;;;;;4955407;28;20042;-63
2022/10/25 06:51:18;;;;;;;25.08;4.00;;;15.40;99.90;;;;;;4965971;28;20047;-63
2022/10/25 06:53:44;;;;;;;18.05;4.28;;;14.90;99.90;;;;;;4954428;28;20469;-63
2022/10/25 06:56:11;;;;;;;22.75;4.45;;;15.60;99.90;;;;;;4967381;28;20038;-63
2022/10/25 06:58:37;;;;;;;22.58;4.65;;;15.80;99.90;;;;;;4964203;28;20035;-63
2022/10/25 07:01:05;;;;;;;19.13;4.15;;;15.90;99.90;;;;;;4936617;29;20114;-63
2022/10/25 07:03:34;;;;;;;23.55;4.72;;;15.90;99.90;;;;;;4959009;28;20047;-63
2022/10/25 07:06:14;;;;;;;20.20;4.40;;;14.70;99.90;;;;;;4959389;28;20122;-64
2022/10/25 07:08:41;;;;;;;23.45;4.70;;;14.80;99.90;;;;;;4953810;29;20531;-63
2022/10/25 07:11:16;;;;;;;27.75;4.47;;;14.40;99.90;;;;;;4920300;29;20413;-63
2022/10/25 07:13:42;;;;;;;18.60;4.90;;;16.10;99.90;;;;;;4962409;28;20027;-63
2022/10/25 07:16:10;;;;;;;19.63;4.28;;;15.00;99.90;;;;;;4956603;28;20461;-63
2022/10/25 07:18:36;;;;;;;24.35;5.55;;;14.60;99.90;;;;;;4940557;28;20047;-63
2022/10/25 07:21:04;;;;;;;21.35;4.95;;;15.00;99.90;;;;;;4973169;28;20117;-63
2022/10/25 07:23:30;;;;;;;21.92;4.13;;;15.80;99.90;;;;;;4968494;28;20078;-62
2022/10/25 07:25:56;;;;;;;21.80;5.28;;;15.30;99.90;;;;;;4972990;28;20039;-63
2022/10/25 07:28:22;;;;;;;14.95;4.30;;;16.20;99.90;;;;;;4939469;28;20053;-63
2022/10/25 07:30:48;;;;;;;14.60;4.20;;;15.30;99.90;;;;;;4972308;28;20043;-63
2022/10/25 07:33:15;;;;;;;13.43;4.47;;;16.30;99.90;;;;;;4970998;28;20381;-63
2022/10/25 07:35:45;;;;;;;23.88;5.15;;;14.70;99.90;;;;;;4972941;28;20034;-63
2022/10/25 07:38:11;;;;;;;21.27;4.10;;;15.80;99.90;;;;;;4968014;28;20046;-63
2022/10/25 07:40:36;;;;;;;19.75;4.78;;;16.30;99.90;;;;;;4946617;29;20062;-63
2022/10/25 07:43:02;;;;;;;21.50;4.80;;;15.10;99.90;;;;;;4953699;29;20089;-63
2022/10/25 07:45:27;;;;;;;28.30;4.43;;;16.10;99.90;;;;;;4936289;29;20054;-63
2022/10/25 07:47:53;;;;;;;18.25;4.05;;;15.20;99.90;;;;;;4971344;28;20118;-64
2022/10/25 07:50:18;;;;;;;23.98;5.28;;;15.50;99.90;;;;;;4967550;28;20034;-63
2022/10/25 07:52:45;;;;;;;22.00;4.93;;;16.80;99.90;;;;;;4957275;28;20428;-64
2022/10/25 07:55:11;;;;;;;18.98;4.43;;;15.80;99.90;;;;;;4947456;28;20109;-64
2022/10/25 07:57:36;;;;;;;18.38;3.90;;;16.00;99.90;;;;;;4946668;28;20051;-64
2022/10/25 08:00:03;;;;;;;25.00;4.32;;;16.80;99.90;;;;;;4951792;28;20038;-64
2022/10/25 08:02:29;;;;;;;15.77;4.18;;;16.10;99.90;;;;;;4967180;28;20070;-64
2022/10/25 08:04:54;;;;;;;17.42;4.28;;;16.40;99.90;;;;;;4976523;28;20424;-64
2022/10/25 08:07:20;;;;;;;17.20;4.22;;;17.10;99.90;;;;;;4942078;29;20059;-64
2022/10/25 08:09:46;;;;;;;19.08;4.18;;;16.30;99.90;;;;;;4956865;29;20077;-64
2022/10/25 08:12:11;;;;;;;22.38;4.72;;;16.30;99.90;;;;;;4957809;28;20074;-64
2022/10/25 08:14:37;;;;;;;22.92;4.32;;;16.30;99.90;;;;;;4975911;28;20042;-64
2022/10/25 08:17:02;;;;;;;18.98;4.05;;;16.40;99.90;;;;;;4975861;28;20062;-65
2022/10/25 08:19:28;;;;;;;18.15;3.63;;;17.50;99.90;;;;;;4962239;28;20070;-64
2022/10/25 08:21:53;;;;;;;15.88;3.90;;;17.50;99.90;;;;;;4975509;28;20039;-64
2022/10/25 08:24:19;;;;;;;13.60;3.38;;;17.00;99.90;;;;;;4974074;28;20042;-64
2022/10/25 08:26:45;;;;;;;13.23;2.97;;;16.80;99.90;;;;;;4975281;28;20055;-63
2022/10/25 08:29:10;;;;;;;20.67;3.67;;;17.20;99.90;;;;;;4958647;28;20059;-64
2022/10/25 08:31:36;;;;;;;13.02;3.10;;;16.40;99.90;;;;;;4961220;28;20035;-63
2022/10/25 08:34:01;;;;;;;13.98;3.72;;;17.40;99.90;;;;;;4939119;29;20465;-64
2022/10/25 08:36:27;;;;;;;17.00;3.30;;;16.90;99.90;;;;;;4945179;28;20038;-64
2022/10/25 08:38:53;;;;;;;15.88;3.30;;;17.70;99.90;;;;;;4950182;28;20126;-63
2022/10/25 08:41:26;;;;;;;15.60;2.92;;;17.70;99.90;;;;;;4956360;29;20047;-63
2022/10/25 08:44:04;;;;;;;18.17;3.15;;;17.10;99.90;;;;;;4956128;29;20055;-64
2022/10/25 08:46:34;;;;;;;16.50;3.20;;;17.80;99.90;;;;;;4946158;28;20098;-63
2022/10/25 08:49:26;;;;;;;18.85;3.67;;;17.50;99.90;;;;;;4957612;28;20047;-62
2022/10/25 08:51:53;;;;;;;17.60;3.33;;;17.50;99.90;;;;;;4975404;28;20073;-65
2022/10/25 08:54:37;;;;;;;17.05;3.25;;;17.50;99.90;;;;;;4946407;29;20146;-63
2022/10/25 08:57:29;;;;;;;14.60;3.08;;;16.50;99.90;;;;;;4972526;28;20377;-63
2022/10/25 08:59:57;;;;;;;19.67;3.30;;;17.30;99.90;;;;;;4957670;28;20501;-63
2022/10/25 09:02:49;;;;;;;12.35;2.90;;;17.50;99.90;;;;;;4957666;28;20135;-63
2022/10/25 09:05:55;;;;;;;14.27;2.97;;;17.60;99.90;;;;;;4975056;28;20159;-63
2022/10/25 09:08:34;;;;;;;16.52;3.15;;;17.80;99.90;;;;;;4971674;28;20050;-64
2022/10/25 09:11:15;;;;;;;14.45;2.47;;;18.00;99.90;;;;;;4947102;28;20042;-63
2022/10/25 09:13:52;;;;;;;25.73;3.60;;;17.20;99.90;;;;;;4974719;28;20093;-63
2022/10/25 09:16:23;;;;;;;20.23;3.42;;;17.20;99.90;;;;;;4975033;28;20134;-63
2022/10/25 09:18:51;;;;;;;16.77;2.70;;;17.80;99.90;;;;;;4957476;28;20058;-63
2022/10/25 09:21:42;;;;;;;17.77;2.95;;;17.20;99.90;;;;;;4973966;28;20047;-63
2022/10/25 09:24:32;;;;;;;14.10;2.72;;;17.10;99.90;;;;;;4957180;28;20046;-64
2022/10/25 09:27:07;;;;;;;18.08;2.80;;;17.50;99.90;;;;;;4957786;28;20043;-64
2022/10/25 09:29:37;;;;;;;15.85;3.70;;;17.40;99.90;;;;;;4954223;28;20375;-65
2022/10/25 09:32:13;;;;;;;17.48;3.03;;;18.10;99.90;;;;;;4974677;28;20035;-63
2022/10/25 09:34:39;;;;;;;17.52;2.85;;;17.50;99.90;;;;;;4974249;28;20039;-63
2022/10/25 09:37:33;;;;;;;19.23;2.70;;;18.10;99.90;;;;;;4957267;28;20082;-63
2022/10/25 09:40:04;;;;;;;19.27;3.08;;;17.70;99.90;;;;;;4952797;29;20050;-63
2022/10/25 09:43:00;;;;;;;11.77;2.72;;;17.70;99.90;;;;;;4955492;28;20098;-63
2022/10/25 09:45:41;;;;;;;17.58;2.60;;;18.20;99.90;;;;;;4954656;29;20114;-64
2022/10/25 09:48:30;;;;;;;13.93;2.97;;;17.80;99.90;;;;;;4955992;28;20455;-64
2022/10/25 09:51:13;;;;;;;16.77;2.80;;;17.70;99.90;;;;;;4959838;28;20063;-62
2022/10/25 09:53:40;;;;;;;20.92;2.88;;;17.70;99.90;;;;;;4966559;28;20046;-62
2022/10/25 09:56:06;;;;;;;22.25;2.92;;;17.60;99.90;;;;;;4962512;28;20047;-64
2022/10/25 09:58:39;;;;;;;20.73;4.20;;;17.70;99.90;;;;;;4970262;28;20063;-64
2022/10/25 10:01:14;;;;;;;15.82;3.00;;;18.10;99.90;;;;;;4937734;29;20043;-65
2022/10/25 10:03:40;;;;;;;19.90;3.30;;;18.20;99.90;;;;;;4937237;28;20133;-64
2022/10/25 10:06:19;;;;;;;15.40;2.67;;;17.80;99.90;;;;;;4962579;28;20086;-62
2022/10/25 10:09:04;;;;;;;21.42;3.00;;;17.60;99.90;;;;;;4972207;28;20043;-62
2022/10/25 10:11:31;;;;;;;17.35;2.70;;;18.00;99.90;;;;;;4958822;28;20050;-64
2022/10/25 10:14:16;;;;;;;19.83;2.83;;;17.60;99.90;;;;;;4955860;28;20143;-64
2022/10/25 10:16:48;;;;;;;15.45;2.65;;;17.80;99.90;;;;;;4937009;29;20513;-64
2022/10/25 10:19:15;;;;;;;15.77;2.58;;;18.20;99.90;;;;;;4952886;28;20405;-64
2022/10/25 10:21:49;;;;;;;15.98;2.60;;;17.80;99.90;;;;;;4941907;28;20055;-64
2022/10/25 10:24:31;;;;;;;22.48;2.92;;;18.20;99.90;;;;;;4936240;29;20410;-64
2022/10/25 10:26:58;;;;;;;15.23;2.58;;;18.00;99.90;;;;;;4954083;28;20093;-64
2022/10/25 10:29:27;;;;;;;14.43;2.42;;;17.80;99.90;;;;;;4947424;28;20040;-64
2022/10/25 10:31:56;;;;;;;20.58;2.88;;;17.90;99.90;;;;;;4949352;29;20051;-64
2022/10/25 10:34:39;;;;;;;22.83;2.83;;;17.40;99.90;;;;;;4937911;29;20048;-64
2022/10/25 10:37:11;;;;;;;12.27;2.17;;;18.20;99.90;;;;;;4935256;29;20051;-65
2022/10/25 10:39:50;;;;;;;13.82;2.17;;;17.70;99.90;;;;;;4936235;29;20036;-64
2022/10/25 10:42:40;;;;;;;15.88;2.53;;;18.20;99.90;;;;;;4935873;29;20051;-65
2022/10/25 10:45:09;;;;;;;11.25;2.08;;;18.30;99.90;;;;;;4953752;29;20409;-64
2022/10/25 10:47:50;;;;;;;14.07;2.83;;;18.40;99.90;;;;;;4952761;28;20196;-64
2022/10/25 10:50:22;;;;;;;19.48;2.70;;;18.60;99.90;;;;;;4943323;28;20043;-65
2022/10/25 10:52:58;;;;;;;13.25;2.30;;;18.30;99.90;;;;;;4951757;29;20074;-65
2022/10/25 10:55:35;;;;;;;16.83;2.85;;;18.40;99.90;;;;;;4934765;29;20115;-65
2022/10/25 10:58:14;;;;;;;21.98;3.05;;;18.80;99.90;;;;;;4934407;29;20110;-64
2022/10/25 11:01:07;;;;;;;15.73;2.72;;;18.70;99.90;;;;;;4942902;28;20454;-65
2022/10/25 11:03:37;;;;;;;13.30;2.30;;;18.50;99.90;;;;;;4951039;29;20050;-65
2022/10/25 11:06:06;;;;;;;19.63;2.88;;;18.70;99.90;;;;;;4934821;29;20047;-64
2022/10/25 11:08:32;;;;;;;15.43;2.47;;;18.80;99.90;;;;;;4937602;29;20557;-65
2022/10/25 11:11:14;;;;;;;12.27;2.10;;;18.60;99.90;;;;;;4944374;28;20043;-64
2022/10/25 11:13:45;;;;;;;13.55;2.60;;;18.70;99.90;;;;;;4934137;29;20045;-64
2022/10/25 11:16:14;;;;;;;14.63;2.47;;;18.70;99.90;;;;;;4937937;29;20387;-64
2022/10/25 11:19:06;;;;;;;9.07;2.22;;;18.70;99.90;;;;;;4937946;29;20070;-63
2022/10/25 11:22:00;;;;;;;9.55;1.70;;;18.80;99.90;;;;;;4939735;29;20039;-64
2022/10/25 11:24:56;;;;;;;13.68;2.28;;;18.40;99.90;;;;;;4946635;28;20533;-65
2022/10/25 11:27:43;;;;;;;9.38;1.75;;;18.30;99.90;;;;;;4937973;29;20035;-64
2022/10/25 11:30:18;;;;;;;17.90;2.75;;;18.10;99.90;;;;;;4945518;29;20508;-64
2022/10/25 11:33:38;;;;;;;14.85;2.65;;;18.00;99.90;;;;;;4955168;28;20047;-63
2022/10/25 11:36:12;;;;;;;15.95;2.55;;;18.20;99.90;;;;;;4917057;29;20047;-64
2022/10/25 11:39:13;;;;;;;15.88;2.45;;;18.50;99.90;;;;;;4949709;28;20047;-64
2022/10/25 11:41:52;;;;;;;10.25;1.92;;;18.50;99.90;;;;;;4935469;29;20110;-64
2022/10/25 11:44:33;;;;;;;12.70;1.80;;;18.50;99.90;;;;;;4943276;29;20049;-64
2022/10/25 11:47:13;;;;;;;15.27;2.08;;;18.50;99.90;;;;;;4950318;29;20035;-63
2022/10/25 11:49:56;;;;;;;11.98;1.85;;;18.40;99.90;;;;;;4955611;28;20094;-64
2022/10/25 11:52:40;;;;;;;11.48;2.08;;;18.00;99.90;;;;;;4957374;28;20035;-64
2022/10/25 11:55:18;;;;;;;18.35;2.92;;;18.40;99.90;;;;;;4957259;28;20453;-64
2022/10/25 11:57:52;;;;;;;12.95;2.20;;;17.90;99.90;;;;;;4951718;28;20039;-63
2022/10/25 12:00:22;;;;;;;13.10;2.10;;;18.00;99.90;;;;;;4943936;29;20035;-64
2022/10/25 12:03:03;;;;;;;9.30;2.13;;;18.00;99.90;;;;;;4942024;28;20044;-64
2022/10/25 12:05:47;;;;;;;17.08;2.50;;;17.80;99.90;;;;;;4953636;29;20043;-64
2022/10/25 12:08:16;;;;;;;14.63;2.78;;;18.30;99.90;;;;;;4952564;29;20039;-64
2022/10/25 12:10:46;;;;;;;17.20;2.45;;;18.20;99.90;;;;;;4926376;29;20066;-63
2022/10/25 12:13:15;;;;;;;12.13;2.55;;;18.40;99.90;;;;;;4943511;29;20050;-63
2022/10/25 12:15:45;;;;;;;16.73;2.60;;;18.30;99.90;;;;;;4954358;28;20063;-64
2022/10/25 12:18:15;;;;;;;11.93;2.70;;;18.50;99.90;;;;;;4967621;28;20454;-64
2022/10/25 12:20:44;;;;;;;17.73;2.75;;;18.20;99.90;;;;;;4975632;28;20122;-64
2022/10/25 12:23:15;;;;;;;14.18;2.80;;;18.50;99.90;;;;;;4964840;28;20115;-63
2022/10/25 12:26:12;;;;;;;16.85;2.85;;;18.30;99.90;;;;;;4964549;28;20043;-63
2022/10/25 12:28:45;;;;;;;;;;;18.50;99.90;;;;;;4944302;28;20057;-63
2022/10/25 12:31:26;;;;;;;13.48;2.15;;;18.50;99.90;;;;;;4958077;28;19990;-64
2022/10/25 12:34:00;;;;;;;14.15;2.58;;;18.60;99.90;;;;;;4958187;28;20085;-64
2022/10/25 12:36:48;;;;;;;14.85;2.03;;;18.50;99.90;;;;;;4963331;28;20054;-63
2022/10/25 12:39:38;;;;;;;13.13;2.30;;;18.50;99.90;;;;;;4966607;28;20105;-64
2022/10/25 12:42:20;;;;;;;20.33;2.72;;;18.30;99.90;;;;;;4972747;28;20089;-64
2022/10/25 12:45:04;;;;;;;16.20;2.20;;;18.60;99.90;;;;;;4953262;28;20042;-65
2022/10/25 12:47:36;;;;;;;15.43;2.17;;;18.30;99.90;;;;;;4946656;29;20273;-63
2022/10/25 12:50:21;;;;;;;15.02;2.05;;;18.20;99.90;;;;;;4954163;28;20480;-64
2022/10/25 12:53:15;;;;;;;14.13;2.22;;;18.20;99.90;;;;;;4970836;28;20093;-64
2022/10/25 12:56:04;;;;;;;13.70;2.50;;;18.40;99.90;;;;;;4974809;28;20057;-64
2022/10/25 12:59:14;;;;;;;13.70;3.15;;;18.50;99.90;;;;;;4963013;28;20050;-64
2022/10/25 13:01:54;;;;;;;13.95;2.25;;;18.30;99.90;;;;;;4959944;28;20053;-67